• Join FlightAware (Why Join?)
  • Login
  • US Flag 
03:47AM EDT


 

Airport Tracker/Info


-or-


 

Live Flight TrackerFlight Track Log ✈ N421KS ✈ 09-Sep-2013 ✈ CYHZ - KPWM

Flight Track Log - Related Links

Times and Time Zones

All times are in EDT time to prevent confusion due to time zone crossing. See the N421KS flight status page for this flight to view local times or setup timezone preferences in your user account.

Time Position Orientation Groundspeed Altitude Reporting Facility
EDT Latitude Longitude Course Direction KTS MPH feet Rate Location/Type
09:34AM 44.4500 -68.4333 82° East 140 161 3,100  Level Moncton Center
09:35AM 44.4500 -68.3500 90° East 160 184 3,700 600 Climbing Moncton Center
09:36AM 44.4500 -68.3167 90° East 170 196 4,400 600 Climbing Moncton Center
09:37AM 44.4500 -68.2333 90° East 160 184 5,000 720 Climbing Moncton Center
09:38AM 44.4975 -67.9227 82° East  Level Estimated
09:38AM 44.4733 -68.1511 68° East 164 189 6,000  Level Boston Center
09:39AM 44.5047 -67.8494 82° East  Level FlightAware Approximate
09:39AM 44.4792 -68.0897 82° East 164 189 6,600  Level Boston Center
09:40AM 44.4850 -68.0250 83° East 159 183 7,300 600 Climbing Boston Center
09:41AM 44.4908 -67.9606 83° East 159 183 7,900 600 Climbing Boston Center
09:42AM 44.4947 -67.8992 85° East 159 183 8,500 540 Climbing Boston Center
09:43AM 44.5003 -67.8289 84° East 164 189 9,000 180 Climbing Boston Center
09:44AM 44.4833 -67.7333 104° East 190 219 9,000  Level Moncton Center
09:45AM 44.5000 -67.6500 74° East 200 230 9,000  Level Moncton Center
09:46AM 44.5167 -67.5667 74° East 200 230 9,000  Level Moncton Center
09:47AM 44.5167 -67.5000 90° East 200 230 9,000  Level Moncton Center
09:48AM 44.5333 -67.4167 74° East 200 230 9,000  Level Moncton Center
09:49AM 44.5433 -67.3619 76° East 200 230 9,000  Level Boston Center
09:50AM 44.5525 -67.2856 80° East 200 230 9,000  Level Boston Center
09:51AM 44.5592 -67.2061 83° East 200 230 9,000  Level Boston Center
09:52AM 44.5661 -67.1297 83° East 200 230 9,000  Level Boston Center
09:53AM 44.5750 -67.0531 81° East 200 230 9,000  Level Boston Center
09:54AM 44.5839 -66.9764 81° East 200 230 9,000  Level Boston Center
09:55AM 44.5833 -66.8833 90° East 200 230 9,000  Level Moncton Center
09:56AM 44.6000 -66.8000 74° East 200 230 9,000  Level Moncton Center
09:57AM 44.6000 -66.7167 90° East 200 230 9,000  Level Moncton Center
09:58AM 44.6167 -66.6500 71° East 200 230 9,000  Level Moncton Center
09:59AM 44.6167 -66.5833 90° East 200 230 9,000  Level Moncton Center
10:00AM 44.6333 -66.4833 77° East 200 230 9,000  Level Moncton Center
10:01AM 44.6333 -66.4167 90° East 200 230 9,000  Level Moncton Center
10:02AM 44.6500 -66.3500 71° East 200 230 9,000  Level Moncton Center
10:03AM 44.6500 -66.2500 90° East 200 230 9,000  Level Moncton Center
10:04AM 44.6667 -66.1833 71° East 200 230 9,000  Level Moncton Center
10:05AM 44.6833 -66.1167 71° East 200 230 9,000  Level Moncton Center
10:06AM 44.6833 -66.0167 90° East 200 230 9,000  Level Moncton Center
10:07AM 44.7000 -65.9500 71° East 200 230 9,000  Level Moncton Center
10:08AM 44.7000 -65.8833 90° East 200 230 9,000  Level Moncton Center
10:09AM 44.7167 -65.7833 77° East 200 230 9,000  Level Moncton Center
10:10AM 44.7167 -65.7167 90° East 210 242 9,000  Level Moncton Center
10:11AM 44.7167 -65.6167 90° East 200 230 9,000  Level Moncton Center
10:12AM 44.7333 -65.5500 71° East 210 242 9,000  Level Moncton Center
10:13AM 44.7333 -65.4500 90° East 200 230 9,000  Level Moncton Center
10:14AM 44.7333 -65.3833 90° East 200 230 9,000  Level Moncton Center
10:15AM 44.7333 -65.3167 90° East 200 230 9,000  Level Moncton Center
10:16AM 44.7333 -65.2167 90° East 200 230 9,000  Level Moncton Center
10:17AM 44.7500 -65.1500 71° East 200 230 9,000  Level Moncton Center
10:18AM 44.7500 -65.0833 90° East 200 230 9,000  Level Moncton Center
10:19AM 44.7500 -64.9833 90° East 210 242 9,000  Level Moncton Center
10:20AM 44.7500 -64.9167 90° East 200 230 9,000  Level Moncton Center
10:21AM 44.7667 -64.8167 77° East 210 242 9,000  Level Moncton Center
10:22AM 44.7667 -64.7500 90° East 210 242 9,000  Level Moncton Center
10:23AM 44.7667 -64.6833 90° East 200 230 9,000  Level Moncton Center
10:24AM 44.7667 -64.5833 90° East 200 230 9,000  Level Moncton Center
10:25AM 44.7833 -64.5167 71° East 210 242 9,000 -60 Level Moncton Center
10:26AM 44.7833 -64.4167 90° East 200 230 8,900  Descending Moncton Center
10:27AM 44.7833 -64.3500 90° East 200 230 9,000  Climbing Moncton Center
10:28AM 44.8000 -64.2833 71° East 200 230 9,000 -240 Level Moncton Center
10:29AM 44.8000 -64.1833 90° East 210 242 8,600 -480 Descending Moncton Center
10:30AM 44.8000 -64.1167 90° East 220 253 8,100 -900 Descending Moncton Center
10:31AM 44.8000 -64.0167 90° East 230 265 6,900 -1,080 Descending Moncton Center
10:32AM 44.8167 -63.9333 74° East 230 265 6,000 -1,020 Descending Moncton Center
10:33AM 44.8167 -63.8333 90° East 230 265 4,900 -1,080 Descending Moncton Center
10:34AM 44.8167 -63.7667 90° East 220 253 3,900 -900 Descending Moncton Center
10:35AM 44.8167 -63.6667 90° East 210 242 3,100 -840 Descending Moncton Center
10:36AM 44.8167 -63.6000 90° East 200 230 2,300 -420 Descending Moncton Center
10:37AM 44.8000 -63.5333 109° East 170 196 2,300 -300 Level Moncton Center
10:38AM 44.8000 -63.4833 90° East 140 161 1,700 -480 Descending Moncton Center
10:39AM 44.8333 -63.4500 35° Northeast 120 138 1,400 -480 Descending Moncton Center
10:40AM 44.8667 -63.4833 325° Northwest 110 127 800 -540 Descending Moncton Center
10:41AM 44.8667 -63.5000 270° West 110 127 400 -180 Descending Moncton Center
10:42AM 44.8667 -63.5000 180° South 10 12 400  Level Moncton Center
10:44AM 44.8750 -63.5249 115° Southeast  Level FlightAware Approximate
10:44AM 44.8667 -63.5000 115° Southeast 20 23 400  Level Moncton Center
10:45AM 44.8667 -63.5000 180° South 20 23 400  Level Moncton Center
10:47AM 44.8779 -63.5336 115° Southeast  Level FlightAware Approximate
10:54AM 44.8667 -63.5000 North  Level FlightAware Approximate
10:55AM 44.8563 -63.5706 North  Level Estimated
10:56AM 44.8667 -63.5000 North  Level FlightAware Approximate
10:57AM 44.8563 -63.5706 North  Level Estimated
10:58AM 44.8667 -63.5000 North  Level FlightAware Approximate
10:59AM 44.8563 -63.5706 North  Level Estimated